sensor_id;sensor_type;location;lat;lon;timestamp;temperature;humidity
60701;DHT22;46541;49.894;10.886;2023-01-30T00:01:16;-1.00;99.90
60701;DHT22;46541;49.894;10.886;2023-01-30T00:03:45;-0.90;99.90
60701;DHT22;46541;49.894;10.886;2023-01-30T00:06:12;-0.90;99.90
60701;DHT22;46541;49.894;10.886;2023-01-30T00:08:39;-0.90;99.90
60701;DHT22;46541;49.894;10.886;2023-01-30T00:11:07;-0.90;99.90
60701;DHT22;46541;49.894;10.886;2023-01-30T00:13:35;-0.80;99.90
60701;DHT22;46541;49.894;10.886;2023-01-30T00:16:02;-0.80;99.90
60701;DHT22;46541;49.894;10.886;2023-01-30T00:18:29;-0.80;99.90
60701;DHT22;46541;49.894;10.886;2023-01-30T00:21:01;-0.80;99.90
60701;DHT22;46541;49.894;10.886;2023-01-30T00:23:30;-0.80;99.90
60701;DHT22;46541;49.894;10.886;2023-01-30T00:25:57;-0.70;99.90
60701;DHT22;46541;49.894;10.886;2023-01-30T00:28:24;-0.70;99.90
60701;DHT22;46541;49.894;10.886;2023-01-30T00:30:52;-0.70;99.90
60701;DHT22;46541;49.894;10.886;2023-01-30T00:33:20;-0.60;99.90
60701;DHT22;46541;49.894;10.886;2023-01-30T00:35:49;-0.60;99.90
60701;DHT22;46541;49.894;10.886;2023-01-30T00:38:17;-0.60;99.90
60701;DHT22;46541;49.894;10.886;2023-01-30T00:40:44;-0.50;99.90
60701;DHT22;46541;49.894;10.886;2023-01-30T00:43:13;-0.50;99.90
60701;DHT22;46541;49.894;10.886;2023-01-30T00:45:59;-0.50;99.90
60701;DHT22;46541;49.894;10.886;2023-01-30T00:48:46;-0.40;99.90
60701;DHT22;46541;49.894;10.886;2023-01-30T00:51:13;-0.40;99.90
60701;DHT22;46541;49.894;10.886;2023-01-30T00:53:40;-0.40;99.90
60701;DHT22;46541;49.894;10.886;2023-01-30T00:56:06;-0.30;99.90
60701;DHT22;46541;49.894;10.886;2023-01-30T00:58:33;-0.30;99.90
60701;DHT22;46541;49.894;10.886;2023-01-30T01:01:00;-0.30;99.90
60701;DHT22;46541;49.894;10.886;2023-01-30T01:03:27;-0.30;99.90
60701;DHT22;46541;49.894;10.886;2023-01-30T01:05:53;-0.20;99.90
60701;DHT22;46541;49.894;10.886;2023-01-30T01:08:20;-0.20;99.90
60701;DHT22;46541;49.894;10.886;2023-01-30T01:10:48;-0.20;99.90
60701;DHT22;46541;49.894;10.886;2023-01-30T01:13:14;-0.10;99.90
60701;DHT22;46541;49.894;10.886;2023-01-30T01:15:41;-0.10;99.90
60701;DHT22;46541;49.894;10.886;2023-01-30T01:18:08;-0.10;99.90
60701;DHT22;46541;49.894;10.886;2023-01-30T01:20:35;0.00;99.90
60701;DHT22;46541;49.894;10.886;2023-01-30T01:23:04;0.00;99.90
60701;DHT22;46541;49.894;10.886;2023-01-30T01:25:31;0.00;99.90
60701;DHT22;46541;49.894;10.886;2023-01-30T01:27:58;0.10;99.90
60701;DHT22;46541;49.894;10.886;2023-01-30T01:30:24;0.10;99.90
60701;DHT22;46541;49.894;10.886;2023-01-30T01:32:51;0.10;99.90
60701;DHT22;46541;49.894;10.886;2023-01-30T01:35:18;0.10;99.90
60701;DHT22;46541;49.894;10.886;2023-01-30T01:37:45;0.20;99.90
60701;DHT22;46541;49.894;10.886;2023-01-30T01:40:18;0.20;99.90
60701;DHT22;46541;49.894;10.886;2023-01-30T01:43:21;0.20;99.90
60701;DHT22;46541;49.894;10.886;2023-01-30T01:45:52;0.30;99.90
60701;DHT22;46541;49.894;10.886;2023-01-30T01:48:28;0.30;99.90
60701;DHT22;46541;49.894;10.886;2023-01-30T01:51:05;0.40;99.90
60701;DHT22;46541;49.894;10.886;2023-01-30T01:53:39;0.40;99.90
60701;DHT22;46541;49.894;10.886;2023-01-30T01:56:08;0.40;99.90
60701;DHT22;46541;49.894;10.886;2023-01-30T01:58:46;0.50;99.90
60701;DHT22;46541;49.894;10.886;2023-01-30T02:01:15;0.50;99.90
60701;DHT22;46541;49.894;10.886;2023-01-30T02:03:46;0.60;99.90
60701;DHT22;46541;49.894;10.886;2023-01-30T02:06:15;0.60;99.90
60701;DHT22;46541;49.894;10.886;2023-01-30T02:08:58;0.60;99.90
60701;DHT22;46541;49.894;10.886;2023-01-30T02:11:46;0.60;99.90
60701;DHT22;46541;49.894;10.886;2023-01-30T02:14:15;0.60;99.90
60701;DHT22;46541;49.894;10.886;2023-01-30T02:16:44;0.60;99.90
60701;DHT22;46541;49.894;10.886;2023-01-30T02:19:46;0.60;99.90
60701;DHT22;46541;49.894;10.886;2023-01-30T02:22:35;0.70;99.90
60701;DHT22;46541;49.894;10.886;2023-01-30T02:36:33;0.80;99.90
60701;DHT22;46541;49.894;10.886;2023-01-30T02:41:46;0.80;99.90
60701;DHT22;46541;49.894;10.886;2023-01-30T02:47:10;0.80;99.90
60701;DHT22;46541;49.894;10.886;2023-01-30T02:49:41;0.90;99.90
60701;DHT22;46541;49.894;10.886;2023-01-30T02:52:11;0.90;99.90
60701;DHT22;46541;49.894;10.886;2023-01-30T02:54:38;0.90;99.90
60701;DHT22;46541;49.894;10.886;2023-01-30T02:57:21;0.90;99.90
60701;DHT22;46541;49.894;10.886;2023-01-30T02:59:54;0.90;99.90
60701;DHT22;46541;49.894;10.886;2023-01-30T03:05:29;1.00;99.90
60701;DHT22;46541;49.894;10.886;2023-01-30T03:10:54;1.00;99.90
60701;DHT22;46541;49.894;10.886;2023-01-30T03:13:36;1.00;99.90
60701;DHT22;46541;49.894;10.886;2023-01-30T03:16:32;1.00;99.90
60701;DHT22;46541;49.894;10.886;2023-01-30T03:19:01;1.10;99.90
60701;DHT22;46541;49.894;10.886;2023-01-30T03:21:29;1.10;99.90
60701;DHT22;46541;49.894;10.886;2023-01-30T03:23:56;1.10;99.90
60701;DHT22;46541;49.894;10.886;2023-01-30T03:26:27;1.10;99.90
60701;DHT22;46541;49.894;10.886;2023-01-30T03:28:55;1.10;99.90
60701;DHT22;46541;49.894;10.886;2023-01-30T03:31:22;1.20;99.90
60701;DHT22;46541;49.894;10.886;2023-01-30T03:33:49;1.20;99.90
60701;DHT22;46541;49.894;10.886;2023-01-30T03:36:16;1.20;99.90
60701;DHT22;46541;49.894;10.886;2023-01-30T03:38:43;1.20;99.90
60701;DHT22;46541;49.894;10.886;2023-01-30T03:41:09;1.20;99.90
60701;DHT22;46541;49.894;10.886;2023-01-30T03:43:36;1.20;99.90
60701;DHT22;46541;49.894;10.886;2023-01-30T03:46:03;1.20;99.90
60701;DHT22;46541;49.894;10.886;2023-01-30T03:48:30;1.20;99.90
60701;DHT22;46541;49.894;10.886;2023-01-30T03:50:56;1.20;99.90
60701;DHT22;46541;49.894;10.886;2023-01-30T03:53:23;1.30;99.90
60701;DHT22;46541;49.894;10.886;2023-01-30T03:55:50;1.30;99.90
60701;DHT22;46541;49.894;10.886;2023-01-30T03:58:16;1.30;99.90
60701;DHT22;46541;49.894;10.886;2023-01-30T04:00:43;1.40;99.90
60701;DHT22;46541;49.894;10.886;2023-01-30T04:03:10;1.40;99.90
60701;DHT22;46541;49.894;10.886;2023-01-30T04:05:36;1.50;99.90
60701;DHT22;46541;49.894;10.886;2023-01-30T04:08:03;1.50;99.90
60701;DHT22;46541;49.894;10.886;2023-01-30T04:10:30;1.50;99.90
60701;DHT22;46541;49.894;10.886;2023-01-30T04:12:57;1.50;99.90
60701;DHT22;46541;49.894;10.886;2023-01-30T04:15:23;1.50;99.90
60701;DHT22;46541;49.894;10.886;2023-01-30T04:17:50;1.60;99.90
60701;DHT22;46541;49.894;10.886;2023-01-30T04:20:17;1.50;99.90
60701;DHT22;46541;49.894;10.886;2023-01-30T04:22:45;1.60;99.90
60701;DHT22;46541;49.894;10.886;2023-01-30T04:25:12;1.60;99.90
60701;DHT22;46541;49.894;10.886;2023-01-30T04:27:39;1.60;99.90
60701;DHT22;46541;49.894;10.886;2023-01-30T04:30:06;1.60;99.90
60701;DHT22;46541;49.894;10.886;2023-01-30T04:32:33;1.60;99.90
60701;DHT22;46541;49.894;10.886;2023-01-30T04:34:59;1.60;99.90
60701;DHT22;46541;49.894;10.886;2023-01-30T04:37:26;1.60;99.90
60701;DHT22;46541;49.894;10.886;2023-01-30T04:39:53;1.70;99.90
60701;DHT22;46541;49.894;10.886;2023-01-30T04:42:20;1.60;99.90
60701;DHT22;46541;49.894;10.886;2023-01-30T04:44:46;1.60;99.90
60701;DHT22;46541;49.894;10.886;2023-01-30T04:47:13;1.70;99.90
60701;DHT22;46541;49.894;10.886;2023-01-30T04:49:40;1.70;99.90
60701;DHT22;46541;49.894;10.886;2023-01-30T04:52:06;1.70;99.90
60701;DHT22;46541;49.894;10.886;2023-01-30T04:54:33;1.70;99.90
60701;DHT22;46541;49.894;10.886;2023-01-30T04:57:00;1.70;99.90
60701;DHT22;46541;49.894;10.886;2023-01-30T04:59:26;1.70;99.90
60701;DHT22;46541;49.894;10.886;2023-01-30T05:01:53;1.70;99.90
60701;DHT22;46541;49.894;10.886;2023-01-30T05:04:20;1.80;99.90
60701;DHT22;46541;49.894;10.886;2023-01-30T05:06:47;1.80;99.90
60701;DHT22;46541;49.894;10.886;2023-01-30T05:09:14;1.80;99.90
60701;DHT22;46541;49.894;10.886;2023-01-30T05:11:40;1.80;99.90
60701;DHT22;46541;49.894;10.886;2023-01-30T05:14:07;1.80;99.90
60701;DHT22;46541;49.894;10.886;2023-01-30T05:16:34;1.90;99.90
60701;DHT22;46541;49.894;10.886;2023-01-30T05:19:01;1.80;99.90
60701;DHT22;46541;49.894;10.886;2023-01-30T05:21:27;1.70;99.90
60701;DHT22;46541;49.894;10.886;2023-01-30T05:23:55;1.80;99.90
60701;DHT22;46541;49.894;10.886;2023-01-30T05:26:23;1.80;99.90
60701;DHT22;46541;49.894;10.886;2023-01-30T05:28:55;1.80;99.90
60701;DHT22;46541;49.894;10.886;2023-01-30T05:31:22;1.90;99.90
60701;DHT22;46541;49.894;10.886;2023-01-30T05:33:50;1.90;99.90
60701;DHT22;46541;49.894;10.886;2023-01-30T05:36:19;1.90;99.90
60701;DHT22;46541;49.894;10.886;2023-01-30T05:38:46;1.90;99.90
60701;DHT22;46541;49.894;10.886;2023-01-30T05:41:14;1.90;99.90
60701;DHT22;46541;49.894;10.886;2023-01-30T05:43:41;1.90;99.90
60701;DHT22;46541;49.894;10.886;2023-01-30T05:46:10;1.90;99.90
60701;DHT22;46541;49.894;10.886;2023-01-30T05:48:37;2.00;99.90
60701;DHT22;46541;49.894;10.886;2023-01-30T05:51:05;2.00;99.90
60701;DHT22;46541;49.894;10.886;2023-01-30T05:53:32;1.90;99.90
60701;DHT22;46541;49.894;10.886;2023-01-30T05:56:04;1.90;99.90
60701;DHT22;46541;49.894;10.886;2023-01-30T05:58:32;1.90;99.90
60701;DHT22;46541;49.894;10.886;2023-01-30T06:01:00;1.90;99.90
60701;DHT22;46541;49.894;10.886;2023-01-30T06:03:27;1.80;99.90
60701;DHT22;46541;49.894;10.886;2023-01-30T06:05:54;1.80;99.90
60701;DHT22;46541;49.894;10.886;2023-01-30T06:08:21;1.80;99.90
60701;DHT22;46541;49.894;10.886;2023-01-30T06:10:49;1.80;99.90
60701;DHT22;46541;49.894;10.886;2023-01-30T06:13:15;1.80;99.90
60701;DHT22;46541;49.894;10.886;2023-01-30T06:15:42;1.70;99.90
60701;DHT22;46541;49.894;10.886;2023-01-30T06:18:09;1.70;99.90
60701;DHT22;46541;49.894;10.886;2023-01-30T06:20:36;1.70;99.90
60701;DHT22;46541;49.894;10.886;2023-01-30T06:23:02;1.60;99.90
60701;DHT22;46541;49.894;10.886;2023-01-30T06:25:29;1.60;99.90
60701;DHT22;46541;49.894;10.886;2023-01-30T06:27:56;1.70;99.90
60701;DHT22;46541;49.894;10.886;2023-01-30T06:30:22;1.70;99.90
60701;DHT22;46541;49.894;10.886;2023-01-30T06:32:50;1.60;99.90
60701;DHT22;46541;49.894;10.886;2023-01-30T06:35:17;1.60;99.90
60701;DHT22;46541;49.894;10.886;2023-01-30T06:37:44;1.60;99.90
60701;DHT22;46541;49.894;10.886;2023-01-30T06:40:12;1.50;99.90
60701;DHT22;46541;49.894;10.886;2023-01-30T06:42:46;1.50;99.90
60701;DHT22;46541;49.894;10.886;2023-01-30T06:45:15;1.50;99.90
60701;DHT22;46541;49.894;10.886;2023-01-30T06:47:54;1.50;99.90
60701;DHT22;46541;49.894;10.886;2023-01-30T06:50:24;1.40;99.90
60701;DHT22;46541;49.894;10.886;2023-01-30T06:52:52;1.40;99.90
60701;DHT22;46541;49.894;10.886;2023-01-30T06:55:22;1.40;99.90
60701;DHT22;46541;49.894;10.886;2023-01-30T06:57:49;1.40;99.90
60701;DHT22;46541;49.894;10.886;2023-01-30T07:00:25;1.40;99.90
60701;DHT22;46541;49.894;10.886;2023-01-30T07:02:52;1.40;99.90
60701;DHT22;46541;49.894;10.886;2023-01-30T07:05:19;1.40;99.90
60701;DHT22;46541;49.894;10.886;2023-01-30T07:07:46;1.40;99.90
60701;DHT22;46541;49.894;10.886;2023-01-30T07:10:13;1.50;99.90
60701;DHT22;46541;49.894;10.886;2023-01-30T07:12:39;1.50;99.90
60701;DHT22;46541;49.894;10.886;2023-01-30T07:15:07;1.40;99.90
60701;DHT22;46541;49.894;10.886;2023-01-30T07:17:33;1.50;99.90
60701;DHT22;46541;49.894;10.886;2023-01-30T07:20:00;1.50;99.90
60701;DHT22;46541;49.894;10.886;2023-01-30T07:22:27;1.40;99.90
60701;DHT22;46541;49.894;10.886;2023-01-30T07:24:53;1.40;99.90
60701;DHT22;46541;49.894;10.886;2023-01-30T07:27:20;1.40;99.90
60701;DHT22;46541;49.894;10.886;2023-01-30T07:29:47;1.40;99.90
60701;DHT22;46541;49.894;10.886;2023-01-30T07:32:16;1.40;99.90
60701;DHT22;46541;49.894;10.886;2023-01-30T07:34:44;1.40;99.90
60701;DHT22;46541;49.894;10.886;2023-01-30T07:37:11;1.50;99.90
60701;DHT22;46541;49.894;10.886;2023-01-30T07:39:38;1.50;99.90
60701;DHT22;46541;49.894;10.886;2023-01-30T07:42:05;1.40;99.90
60701;DHT22;46541;49.894;10.886;2023-01-30T07:44:31;1.50;99.90
60701;DHT22;46541;49.894;10.886;2023-01-30T07:46:59;1.40;99.90
60701;DHT22;46541;49.894;10.886;2023-01-30T07:49:26;1.50;99.90
60701;DHT22;46541;49.894;10.886;2023-01-30T07:51:53;1.50;99.90
60701;DHT22;46541;49.894;10.886;2023-01-30T07:54:20;1.60;99.90
60701;DHT22;46541;49.894;10.886;2023-01-30T07:56:46;1.60;99.90
60701;DHT22;46541;49.894;10.886;2023-01-30T07:59:13;1.60;99.90
60701;DHT22;46541;49.894;10.886;2023-01-30T08:01:40;1.60;99.90
60701;DHT22;46541;49.894;10.886;2023-01-30T08:04:07;1.60;99.90
60701;DHT22;46541;49.894;10.886;2023-01-30T08:06:33;1.60;99.90
60701;DHT22;46541;49.894;10.886;2023-01-30T08:09:05;1.60;99.90
60701;DHT22;46541;49.894;10.886;2023-01-30T08:11:32;1.70;99.90
60701;DHT22;46541;49.894;10.886;2023-01-30T08:13:59;1.70;99.90
60701;DHT22;46541;49.894;10.886;2023-01-30T08:16:25;1.70;99.90
60701;DHT22;46541;49.894;10.886;2023-01-30T08:18:52;1.70;99.90
60701;DHT22;46541;49.894;10.886;2023-01-30T08:21:19;1.70;99.90
60701;DHT22;46541;49.894;10.886;2023-01-30T08:23:46;1.70;99.90
60701;DHT22;46541;49.894;10.886;2023-01-30T08:26:13;1.60;99.90
60701;DHT22;46541;49.894;10.886;2023-01-30T08:28:40;1.60;99.90
60701;DHT22;46541;49.894;10.886;2023-01-30T08:31:11;1.70;99.90
60701;DHT22;46541;49.894;10.886;2023-01-30T08:33:38;1.70;99.90
60701;DHT22;46541;49.894;10.886;2023-01-30T08:36:05;1.80;99.90
60701;DHT22;46541;49.894;10.886;2023-01-30T08:38:32;1.80;99.90
60701;DHT22;46541;49.894;10.886;2023-01-30T08:40:59;1.80;99.90
60701;DHT22;46541;49.894;10.886;2023-01-30T08:43:26;1.90;99.90
60701;DHT22;46541;49.894;10.886;2023-01-30T08:45:54;1.90;99.90
60701;DHT22;46541;49.894;10.886;2023-01-30T08:48:22;2.00;99.90
60701;DHT22;46541;49.894;10.886;2023-01-30T08:50:52;1.90;99.90
60701;DHT22;46541;49.894;10.886;2023-01-30T08:53:20;1.90;99.90
60701;DHT22;46541;49.894;10.886;2023-01-30T08:55:53;1.90;99.90
60701;DHT22;46541;49.894;10.886;2023-01-30T08:58:20;2.00;99.90
60701;DHT22;46541;49.894;10.886;2023-01-30T09:00:48;2.00;99.90
60701;DHT22;46541;49.894;10.886;2023-01-30T09:03:16;2.00;99.90
60701;DHT22;46541;49.894;10.886;2023-01-30T09:05:43;2.10;99.90
60701;DHT22;46541;49.894;10.886;2023-01-30T09:08:11;2.00;99.90
60701;DHT22;46541;49.894;10.886;2023-01-30T09:10:38;2.10;99.90
60701;DHT22;46541;49.894;10.886;2023-01-30T09:13:08;2.10;99.90
60701;DHT22;46541;49.894;10.886;2023-01-30T09:15:35;2.10;99.90
60701;DHT22;46541;49.894;10.886;2023-01-30T09:18:02;2.10;99.90
60701;DHT22;46541;49.894;10.886;2023-01-30T09:20:30;2.10;99.90
60701;DHT22;46541;49.894;10.886;2023-01-30T09:22:57;2.10;99.90
60701;DHT22;46541;49.894;10.886;2023-01-30T09:25:23;2.10;99.90
60701;DHT22;46541;49.894;10.886;2023-01-30T09:27:50;2.20;99.90
60701;DHT22;46541;49.894;10.886;2023-01-30T09:30:17;2.20;99.90
60701;DHT22;46541;49.894;10.886;2023-01-30T09:32:45;2.20;99.90
60701;DHT22;46541;49.894;10.886;2023-01-30T09:35:12;2.30;99.90
60701;DHT22;46541;49.894;10.886;2023-01-30T09:37:49;2.40;99.90
60701;DHT22;46541;49.894;10.886;2023-01-30T09:40:21;2.30;99.90
60701;DHT22;46541;49.894;10.886;2023-01-30T09:45:43;2.30;99.90
60701;DHT22;46541;49.894;10.886;2023-01-30T09:53:30;2.40;99.90
60701;DHT22;46541;49.894;10.886;2023-01-30T09:56:00;2.40;99.90
60701;DHT22;46541;49.894;10.886;2023-01-30T09:59:16;2.50;99.90
60701;DHT22;46541;49.894;10.886;2023-01-30T10:10:16;2.60;99.90
60701;DHT22;46541;49.894;10.886;2023-01-30T10:20:51;2.70;99.90
60701;DHT22;46541;49.894;10.886;2023-01-30T10:26:17;2.70;99.90
60701;DHT22;46541;49.894;10.886;2023-01-30T10:29:06;2.70;99.90
60701;DHT22;46541;49.894;10.886;2023-01-30T10:31:45;2.80;99.90
60701;DHT22;46541;49.894;10.886;2023-01-30T10:34:18;2.80;99.90
60701;DHT22;46541;49.894;10.886;2023-01-30T10:37:28;2.80;99.90
60701;DHT22;46541;49.894;10.886;2023-01-30T10:40:06;2.80;99.90
60701;DHT22;46541;49.894;10.886;2023-01-30T10:45:45;2.80;99.90
60701;DHT22;46541;49.894;10.886;2023-01-30T10:48:56;2.80;99.90
60701;DHT22;46541;49.894;10.886;2023-01-30T10:51:41;2.80;99.90
60701;DHT22;46541;49.894;10.886;2023-01-30T10:57:45;2.80;99.90
60701;DHT22;46541;49.894;10.886;2023-01-30T11:00:34;2.80;99.90
60701;DHT22;46541;49.894;10.886;2023-01-30T11:05:58;2.90;99.90
60701;DHT22;46541;49.894;10.886;2023-01-30T11:08:28;2.80;99.90
60701;DHT22;46541;49.894;10.886;2023-01-30T11:10:56;2.80;99.90
60701;DHT22;46541;49.894;10.886;2023-01-30T11:13:33;2.90;99.90
60701;DHT22;46541;49.894;10.886;2023-01-30T11:16:04;2.90;99.90
60701;DHT22;46541;49.894;10.886;2023-01-30T11:18:32;2.90;99.90
60701;DHT22;46541;49.894;10.886;2023-01-30T11:21:30;2.90;99.90
60701;DHT22;46541;49.894;10.886;2023-01-30T11:24:15;2.90;99.90
60701;DHT22;46541;49.894;10.886;2023-01-30T11:26:43;3.00;99.90
60701;DHT22;46541;49.894;10.886;2023-01-30T11:29:34;3.00;99.90
60701;DHT22;46541;49.894;10.886;2023-01-30T11:32:13;3.00;99.90
60701;DHT22;46541;49.894;10.886;2023-01-30T11:34:42;2.90;99.90
60701;DHT22;46541;49.894;10.886;2023-01-30T11:37:22;2.90;99.90
60701;DHT22;46541;49.894;10.886;2023-01-30T11:39:51;2.90;99.90
60701;DHT22;46541;49.894;10.886;2023-01-30T11:42:19;3.00;99.90
60701;DHT22;46541;49.894;10.886;2023-01-30T11:44:55;3.00;99.90
60701;DHT22;46541;49.894;10.886;2023-01-30T11:47:36;3.00;99.90
60701;DHT22;46541;49.894;10.886;2023-01-30T11:50:15;3.00;99.90
60701;DHT22;46541;49.894;10.886;2023-01-30T11:52:49;3.00;99.90
60701;DHT22;46541;49.894;10.886;2023-01-30T11:55:18;3.00;99.90
60701;DHT22;46541;49.894;10.886;2023-01-30T11:57:50;3.00;99.90
60701;DHT22;46541;49.894;10.886;2023-01-30T12:00:24;3.10;99.90
60701;DHT22;46541;49.894;10.886;2023-01-30T12:02:53;3.10;99.90
60701;DHT22;46541;49.894;10.886;2023-01-30T12:05:35;2.90;99.90
60701;DHT22;46541;49.894;10.886;2023-01-30T12:11:00;2.90;99.90
60701;DHT22;46541;49.894;10.886;2023-01-30T12:13:32;2.90;99.90
60701;DHT22;46541;49.894;10.886;2023-01-30T12:19:04;3.00;99.90
60701;DHT22;46541;49.894;10.886;2023-01-30T12:22:10;3.10;99.90
60701;DHT22;46541;49.894;10.886;2023-01-30T12:28:00;3.30;99.90
60701;DHT22;46541;49.894;10.886;2023-01-30T12:30:45;3.40;99.90
60701;DHT22;46541;49.894;10.886;2023-01-30T12:33:14;3.40;99.90
60701;DHT22;46541;49.894;10.886;2023-01-30T12:39:12;3.50;99.90
60701;DHT22;46541;49.894;10.886;2023-01-30T12:58:40;3.70;99.90
60701;DHT22;46541;49.894;10.886;2023-01-30T13:14:25;4.10;99.90
60701;DHT22;46541;49.894;10.886;2023-01-30T13:20:34;4.10;99.90
60701;DHT22;46541;49.894;10.886;2023-01-30T13:23:16;4.10;99.90
60701;DHT22;46541;49.894;10.886;2023-01-30T13:26:03;4.10;99.90
60701;DHT22;46541;49.894;10.886;2023-01-30T13:28:44;4.20;99.90
60701;DHT22;46541;49.894;10.886;2023-01-30T13:31:15;4.40;99.90
60701;DHT22;46541;49.894;10.886;2023-01-30T13:33:45;4.50;99.90
60701;DHT22;46541;49.894;10.886;2023-01-30T13:39:13;4.50;99.90
60701;DHT22;46541;49.894;10.886;2023-01-30T13:41:52;4.60;99.90
60701;DHT22;46541;49.894;10.886;2023-01-30T13:44:25;4.70;99.90
60701;DHT22;46541;49.894;10.886;2023-01-30T13:47:30;4.80;99.90
60701;DHT22;46541;49.894;10.886;2023-01-30T13:50:24;4.70;99.90
60701;DHT22;46541;49.894;10.886;2023-01-30T13:52:53;4.80;99.90
60701;DHT22;46541;49.894;10.886;2023-01-30T13:55:47;4.80;99.90
60701;DHT22;46541;49.894;10.886;2023-01-30T13:58:43;4.70;99.90
60701;DHT22;46541;49.894;10.886;2023-01-30T14:01:13;4.70;99.90
60701;DHT22;46541;49.894;10.886;2023-01-30T14:03:41;4.60;99.90
60701;DHT22;46541;49.894;10.886;2023-01-30T14:06:31;4.60;99.90
60701;DHT22;46541;49.894;10.886;2023-01-30T14:09:02;4.60;99.90
60701;DHT22;46541;49.894;10.886;2023-01-30T14:16:50;4.60;99.90
60701;DHT22;46541;49.894;10.886;2023-01-30T14:20:18;4.50;99.90
60701;DHT22;46541;49.894;10.886;2023-01-30T14:22:23;4.50;99.90
60701;DHT22;46541;49.894;10.886;2023-01-30T14:30:45;4.50;99.90
60701;DHT22;46541;49.894;10.886;2023-01-30T14:38:34;4.60;99.90
60701;DHT22;46541;49.894;10.886;2023-01-30T14:43:46;4.60;99.90
60701;DHT22;46541;49.894;10.886;2023-01-30T14:57:01;4.70;99.90
60701;DHT22;46541;49.894;10.886;2023-01-30T14:59:46;4.60;99.90
60701;DHT22;46541;49.894;10.886;2023-01-30T15:02:31;4.60;99.90
60701;DHT22;46541;49.894;10.886;2023-01-30T15:05:13;4.50;99.90
60701;DHT22;46541;49.894;10.886;2023-01-30T15:07:50;4.40;99.90
60701;DHT22;46541;49.894;10.886;2023-01-30T15:19:09;4.30;99.90
60701;DHT22;46541;49.894;10.886;2023-01-30T15:32:28;4.20;99.90
60701;DHT22;46541;49.894;10.886;2023-01-30T15:34:59;4.20;99.90
60701;DHT22;46541;49.894;10.886;2023-01-30T15:37:51;4.20;99.90
60701;DHT22;46541;49.894;10.886;2023-01-30T15:40:21;4.20;99.90
60701;DHT22;46541;49.894;10.886;2023-01-30T15:43:47;4.10;99.90
60701;DHT22;46541;49.894;10.886;2023-01-30T15:46:29;4.10;99.90
60701;DHT22;46541;49.894;10.886;2023-01-30T15:51:31;4.10;99.90
60701;DHT22;46541;49.894;10.886;2023-01-30T15:54:01;4.10;99.90
60701;DHT22;46541;49.894;10.886;2023-01-30T15:56:30;4.10;99.90
60701;DHT22;46541;49.894;10.886;2023-01-30T15:58:59;4.10;99.90
60701;DHT22;46541;49.894;10.886;2023-01-30T16:01:27;4.10;99.90
60701;DHT22;46541;49.894;10.886;2023-01-30T16:03:54;4.10;99.90
60701;DHT22;46541;49.894;10.886;2023-01-30T16:06:34;4.10;99.90
60701;DHT22;46541;49.894;10.886;2023-01-30T16:09:05;4.10;99.90
60701;DHT22;46541;49.894;10.886;2023-01-30T16:11:41;4.10;99.90
60701;DHT22;46541;49.894;10.886;2023-01-30T16:14:13;4.00;99.90
60701;DHT22;46541;49.894;10.886;2023-01-30T16:16:52;4.00;99.90
60701;DHT22;46541;49.894;10.886;2023-01-30T16:19:31;4.00;99.90
60701;DHT22;46541;49.894;10.886;2023-01-30T16:22:00;3.90;99.90
60701;DHT22;46541;49.894;10.886;2023-01-30T16:24:30;3.90;99.90
60701;DHT22;46541;49.894;10.886;2023-01-30T16:27:04;4.00;99.90
60701;DHT22;46541;49.894;10.886;2023-01-30T16:29:41;3.90;99.90
60701;DHT22;46541;49.894;10.886;2023-01-30T16:32:12;4.00;99.90
60701;DHT22;46541;49.894;10.886;2023-01-30T16:34:39;4.00;99.90
60701;DHT22;46541;49.894;10.886;2023-01-30T16:37:25;4.00;99.90
60701;DHT22;46541;49.894;10.886;2023-01-30T16:42:38;4.00;99.90
60701;DHT22;46541;49.894;10.886;2023-01-30T16:47:38;4.00;99.90
60701;DHT22;46541;49.894;10.886;2023-01-30T16:50:17;4.00;99.90
60701;DHT22;46541;49.894;10.886;2023-01-30T16:52:50;4.00;99.90
60701;DHT22;46541;49.894;10.886;2023-01-30T16:55:27;4.10;99.90
60701;DHT22;46541;49.894;10.886;2023-01-30T16:57:57;4.00;99.90
60701;DHT22;46541;49.894;10.886;2023-01-30T17:00:32;4.10;99.90
60701;DHT22;46541;49.894;10.886;2023-01-30T17:03:01;4.00;99.90
60701;DHT22;46541;49.894;10.886;2023-01-30T17:05:36;4.00;99.90
60701;DHT22;46541;49.894;10.886;2023-01-30T17:08:04;4.10;99.90
60701;DHT22;46541;49.894;10.886;2023-01-30T17:13:35;4.10;99.90
60701;DHT22;46541;49.894;10.886;2023-01-30T17:18:51;4.10;99.90
60701;DHT22;46541;49.894;10.886;2023-01-30T17:21:19;4.00;99.90
60701;DHT22;46541;49.894;10.886;2023-01-30T17:23:50;4.00;99.90
60701;DHT22;46541;49.894;10.886;2023-01-30T17:26:18;4.00;99.90
60701;DHT22;46541;49.894;10.886;2023-01-30T17:28:45;4.00;99.90
60701;DHT22;46541;49.894;10.886;2023-01-30T17:31:13;4.00;99.90
60701;DHT22;46541;49.894;10.886;2023-01-30T17:33:40;4.00;99.90
60701;DHT22;46541;49.894;10.886;2023-01-30T17:36:18;4.10;99.90
60701;DHT22;46541;49.894;10.886;2023-01-30T17:38:49;4.10;99.90
60701;DHT22;46541;49.894;10.886;2023-01-30T17:41:27;4.10;99.90
60701;DHT22;46541;49.894;10.886;2023-01-30T17:43:56;4.10;99.90
60701;DHT22;46541;49.894;10.886;2023-01-30T17:49:03;4.10;99.90
60701;DHT22;46541;49.894;10.886;2023-01-30T17:51:29;4.10;99.90
60701;DHT22;46541;49.894;10.886;2023-01-30T17:53:56;4.20;99.90
60701;DHT22;46541;49.894;10.886;2023-01-30T17:56:30;4.20;99.90
60701;DHT22;46541;49.894;10.886;2023-01-30T17:58:57;4.20;99.90
60701;DHT22;46541;49.894;10.886;2023-01-30T18:01:24;4.30;99.90
60701;DHT22;46541;49.894;10.886;2023-01-30T18:03:51;4.30;99.90
60701;DHT22;46541;49.894;10.886;2023-01-30T18:06:18;4.30;99.90
60701;DHT22;46541;49.894;10.886;2023-01-30T18:08:44;4.30;99.90
60701;DHT22;46541;49.894;10.886;2023-01-30T18:11:11;4.30;99.90
60701;DHT22;46541;49.894;10.886;2023-01-30T18:13:40;4.30;99.90
60701;DHT22;46541;49.894;10.886;2023-01-30T18:16:16;4.30;99.90
60701;DHT22;46541;49.894;10.886;2023-01-30T18:18:44;4.30;99.90
60701;DHT22;46541;49.894;10.886;2023-01-30T18:21:11;4.30;99.90
60701;DHT22;46541;49.894;10.886;2023-01-30T18:23:37;4.30;99.90
60701;DHT22;46541;49.894;10.886;2023-01-30T18:26:04;4.40;99.90
60701;DHT22;46541;49.894;10.886;2023-01-30T18:28:31;4.40;99.90
60701;DHT22;46541;49.894;10.886;2023-01-30T18:30:58;4.30;99.90
60701;DHT22;46541;49.894;10.886;2023-01-30T18:33:25;4.40;99.90
60701;DHT22;46541;49.894;10.886;2023-01-30T18:35:52;4.40;99.90
60701;DHT22;46541;49.894;10.886;2023-01-30T18:38:18;4.40;99.90
60701;DHT22;46541;49.894;10.886;2023-01-30T18:40:45;4.40;99.90
60701;DHT22;46541;49.894;10.886;2023-01-30T18:43:12;4.40;99.90
60701;DHT22;46541;49.894;10.886;2023-01-30T18:45:39;4.30;99.90
60701;DHT22;46541;49.894;10.886;2023-01-30T18:48:06;4.40;99.90
60701;DHT22;46541;49.894;10.886;2023-01-30T18:50:33;4.40;99.90